KHQM Airport Information

Runway Information
Runway 06 Length 5000 ft width 150 ft
Elevation 18 ft Threshold 0 ft Heading 80
Runway 24 Length 5000 ft Width 150 ft
Elevation 15 ft Threshold 0 ft Heading 260
Airport Frequencies
Type ASOS Name ASOS Frequency 135.775 MHZ
Type CNTR Name SEATTLE CN Frequency 128.3 MHZ
Type RDO Name SEATTLE RD Frequency 122.2 MHZ
Type UNIC Name CTAF/UNICO Frequency 122.7 MHZ
Airport Navaids
Type NDB Name Abern Frequency 236 KHZ
Type VORTAC Name Hoquiam Frequency 117700 KHZ
Airport Weather Information & NOTAM
ADDS - METARS form results

(1533 UTC 25 June 2018)
 
METAR text: KHQM 251502Z AUTO 25003KT 8SM FEW009 BKN028 OVC033 13/12 A3006 RMK AO2 T01330122
Conditions at: KHQM (HOQUIAM , WA, US) observed 1502 UTC 25 June 2018
Temperature: 13.3°C (56°F)
Dewpoint: 12.2°C (54°F) [RH = 93%]
Pressure (altimeter): 30.06 inches Hg (1018.0 mb)
Winds: from the WSW (250 degrees) at 3 MPH (3 knots; 1.6 m/s)
Visibility: 8 miles (13 km)
Ceiling: 2800 feet AGL
Clouds: few clouds at 900 feet AGL
broken clouds at 2800 feet AGL
overcast cloud deck at 3300 feet AGL
Weather: automated observation with no human augmentation;
there may or may not be significant weather present at this time

METAR text: KHQM 251453Z AUTO 24005KT 8SM OVC032 13/12 A3006 RMK AO2 RAB04E12 SLP181 P0000 60002 T01330117 53010
Conditions at: KHQM (HOQUIAM , WA, US) observed 1453 UTC 25 June 2018
Temperature: 13.3°C (56°F)
Dewpoint: 11.7°C (53°F) [RH = 90%]
Pressure (altimeter): 30.06 inches Hg (1018.0 mb)
[Sea-level pressure: 1018.1 mb]
Winds: from the WSW (240 degrees) at 6 MPH (5 knots; 2.6 m/s)
Visibility: 8 miles (13 km)
Ceiling: 3200 feet AGL
Clouds: overcast cloud deck at 3200 feet AGL
Weather: automated observation with no human augmentation;
there may or may not be significant weather present at this time